Time;durP1;ratioP1;P1;durP2;ratioP2;P2;SDS_P1;SDS_P2;PMS_P1;PMS_P2;Temp;Humidity;BMP_temperature;BMP_pressure;BME280_temperature;BME280_humidity;BME280_pressure;Samples;Min_cycle;Max_cycle;Signal;HPM_P1;HPM_P2
2022/08/13 00:00:15;;;;;;;8.20;6.12;;;;;;;20.67;78.48;100487.15;2688051;86;21038;-94
2022/08/13 00:04:18;;;;;;;6.90;6.25;;;;;;;20.52;78.87;100495.77;2715598;85;21583;-93
2022/08/13 00:08:25;;;;;;;24.27;8.50;;;;;;;20.39;79.57;100501.30;2744327;84;21409;-93
2022/08/13 00:16:55;;;;;;;8.05;7.03;;;;;;;20.30;79.85;100492.11;2751960;84;21074;-90
2022/08/13 00:20:58;;;;;;;10.68;8.18;;;;;;;20.21;80.08;100490.86;2686021;86;21012;-93
2022/08/13 00:25:03;;;;;;;8.90;7.45;;;;;;;20.14;80.01;100486.38;2693159;86;21154;-87
2022/08/13 00:29:05;;;;;;;8.83;7.90;;;;;;;20.04;80.34;100490.69;2745269;85;21043;-92
2022/08/13 00:33:14;;;;;;;9.45;8.45;;;;;;;19.98;80.56;100482.81;2717881;85;21022;-91
2022/08/13 00:37:15;;;;;;;10.72;9.35;;;;;;;19.92;80.89;100480.84;2711374;85;21155;-92
2022/08/13 00:45:37;;;;;;;8.85;7.85;;;;;;;19.71;81.45;100460.76;2738486;85;21074;-92
2022/08/13 00:49:40;;;;;;;10.45;9.43;;;;;;;19.62;81.75;100446.99;2742895;85;21108;-92
2022/08/13 00:53:48;;;;;;;12.28;9.48;;;;;;;19.55;81.83;100452.27;2651486;87;21000;-91
2022/08/13 00:57:49;;;;;;;10.60;8.98;;;;;;;19.51;82.32;100461.25;2752440;85;21030;-94
2022/08/13 01:01:51;;;;;;;10.43;9.08;;;;;;;19.49;82.74;100461.95;2703359;86;21083;-89
2022/08/13 01:05:59;;;;;;;9.88;8.55;;;;;;;19.48;83.79;100470.20;2679860;86;21072;-92
2022/08/13 01:09:56;;;;;;;11.70;10.48;;;;;;;19.37;84.26;100467.42;2740610;85;21054;-92
2022/08/13 01:14:03;;;;;;;10.28;9.23;;;;;;;19.33;84.45;100472.85;2753776;85;20983;-93
2022/08/13 01:22:15;;;;;;;10.48;8.75;;;;;;;19.42;84.46;100459.62;3032879;76;22877;-91
2022/08/13 01:26:19;;;;;;;10.70;9.28;;;;;;;19.39;84.43;100459.98;2989344;78;21592;-94
2022/08/13 01:30:23;;;;;;;10.13;9.03;;;;;;;19.42;84.56;100465.02;2979436;77;21017;-91
2022/08/13 01:34:26;;;;;;;13.55;9.38;;;;;;;19.42;84.79;100469.06;3020975;77;20982;-92
2022/08/13 01:38:28;;;;;;;11.25;9.68;;;;;;;19.37;84.97;100466.92;3027290;77;21027;-91
2022/08/13 01:42:43;;;;;;;9.45;8.38;;;;;;;19.37;85.25;100459.33;3027456;77;20946;-92
2022/08/13 01:51:08;;;;;;;11.20;10.13;;;;;;;19.35;87.13;100471.63;2913969;80;21018;-93
2022/08/13 01:55:10;;;;;;;11.10;9.95;;;;;;;19.43;87.26;100468.56;2939406;78;21018;-90
2022/08/13 01:59:11;;;;;;;11.40;9.90;;;;;;;19.52;87.12;100458.89;2894480;80;21054;-90
2022/08/13 02:03:17;;;;;;;11.38;10.05;;;;;;;19.61;87.63;100466.41;2899386;80;20979;-90
2022/08/13 02:07:18;;;;;;;11.63;10.32;;;;;;;19.64;87.65;100456.59;2912095;80;20991;-90
2022/08/13 02:11:20;;;;;;;10.23;9.33;;;;;;;19.61;88.29;100459.66;2933869;79;21466;-92
2022/08/13 02:15:21;;;;;;;11.85;9.13;;;;;;;19.65;88.67;100451.52;2938007;79;21609;-91
2022/08/13 02:19:23;;;;;;;10.65;9.13;;;;;;;19.67;89.08;100453.53;2896349;80;21594;-92
2022/08/13 02:23:32;;;;;;;12.58;11.05;;;;;;;19.76;89.83;100450.25;2885410;80;21045;-90
2022/08/13 02:27:34;;;;;;;11.45;9.05;;;;;;;19.83;89.38;100443.09;2910720;80;21014;-90
2022/08/13 02:31:36;;;;;;;11.80;9.70;;;;;;;19.97;89.78;100440.14;2946193;78;21009;-91
2022/08/13 02:35:37;;;;;;;9.65;8.58;;;;;;;20.11;89.98;100426.33;2921147;80;21064;-91
2022/08/13 02:39:39;;;;;;;10.55;7.85;;;;;;;20.20;89.64;100426.22;2950956;78;21020;-90
2022/08/13 02:43:42;;;;;;;14.13;10.82;;;;;;;20.19;90.30;100426.75;2945076;78;21520;-85
2022/08/13 02:47:45;;;;;;;11.22;10.10;;;;;;;20.21;89.99;100422.49;2970248;78;21021;-92
2022/08/13 02:51:47;;;;;;;11.63;10.43;;;;;;;20.26;89.86;100422.80;2918442;80;20983;-91
2022/08/13 02:55:51;;;;;;;12.30;11.05;;;;;;;20.31;89.58;100424.91;2970515;78;21438;-90
2022/08/13 02:59:52;;;;;;;9.58;8.68;;;;;;;20.38;89.72;100418.58;2945798;78;21025;-91
2022/08/13 03:03:54;;;;;;;11.38;10.10;;;;;;;20.37;90.10;100416.91;2952049;80;21009;-88
2022/08/13 03:07:57;;;;;;;11.35;10.18;;;;;;;20.41;90.39;100418.20;2949021;80;21046;-91
2022/08/13 03:12:03;;;;;;;10.70;9.65;;;;;;;20.47;90.13;100424.72;2918881;80;22033;-91
2022/08/13 03:16:07;;;;;;;11.53;10.30;;;;;;;20.59;90.81;100425.61;2917372;80;21037;-90
2022/08/13 03:20:16;;;;;;;13.13;11.35;;;;;;;20.52;91.73;100424.98;2968805;78;20986;-92
2022/08/13 03:24:18;;;;;;;13.32;11.65;;;;;;;20.36;92.65;100428.73;2909218;80;21146;-90
2022/08/13 03:28:20;;;;;;;18.52;11.93;;;;;;;20.32;92.30;100423.39;2895575;80;21074;-91
2022/08/13 03:32:21;;;;;;;14.05;10.95;;;;;;;20.44;92.42;100427.80;2917819;80;21011;-91
2022/08/13 03:36:23;;;;;;;12.37;10.88;;;;;;;20.53;92.44;100423.14;2913162;80;21030;-90
2022/08/13 03:41:00;;;;;;;10.78;9.73;;;;;;;20.64;92.20;100423.17;2900874;80;21101;-90
2022/08/13 03:44:33;;;;;;;11.50;9.58;;;;;;;20.68;91.71;100425.31;2893403;80;21589;-88
2022/08/13 03:48:34;;;;;;;15.85;11.20;;;;;;;20.76;91.89;100419.45;2916195;80;21085;-90
2022/08/13 03:52:36;;;;;;;12.68;11.28;;;;;;;20.84;91.33;100416.69;2897520;80;21101;-92
2022/08/13 03:56:38;;;;;;;13.00;11.28;;;;;;;20.86;91.34;100424.09;2887712;81;21066;-93
2022/08/13 04:00:47;;;;;;;13.08;11.20;;;;;;;20.80;91.80;100425.69;2884335;80;21106;-91
2022/08/13 04:04:47;;;;;;;10.98;9.80;;;;;;;20.68;92.12;100425.81;2921384;80;21397;-89
2022/08/13 04:08:50;;;;;;;12.58;10.82;;;;;;;20.64;93.44;100421.81;2890001;80;21043;-89
2022/08/13 04:12:51;;;;;;;13.68;11.63;;;;;;;20.61;94.68;100420.31;2895342;80;21523;-89
2022/08/13 04:16:53;;;;;;;14.28;11.63;;;;;;;20.60;94.79;100416.47;2853744;81;21052;-91
2022/08/13 04:20:54;;;;;;;13.05;11.73;;;;;;;20.64;95.16;100409.66;2893846;80;21043;-87
2022/08/13 04:24:58;;;;;;;12.68;11.35;;;;;;;20.65;95.85;100413.53;2911920;80;21050;-90
2022/08/13 04:29:05;;;;;;;39.03;13.18;;;;;;;20.67;96.25;100414.17;2890058;80;21011;-92
2022/08/13 04:33:10;;;;;;;15.78;13.90;;;;;;;20.74;96.96;100393.98;2965631;79;21400;-94
2022/08/13 04:37:12;;;;;;;15.57;13.10;;;;;;;20.75;96.92;100396.16;2881528;81;21053;-92
2022/08/13 04:41:13;;;;;;;13.72;11.38;;;;;;;20.69;98.32;100395.91;2848628;80;21077;-88
2022/08/13 04:45:14;;;;;;;17.40;12.88;;;;;;;20.53;99.60;100401.52;2932408;80;20990;-92
2022/08/13 04:49:16;;;;;;;15.93;14.25;;;;;;;20.32;100.00;100393.67;2908178;80;21029;-93
2022/08/13 04:53:32;;;;;;;13.53;12.20;;;;;;;20.25;100.00;100396.81;2934177;79;21001;-92
2022/08/13 04:57:34;;;;;;;15.63;12.40;;;;;;;20.25;100.00;100391.41;2968970;78;21563;-93
2022/08/13 05:01:35;;;;;;;17.95;13.98;;;;;;;20.26;100.00;100390.39;2915977;80;21033;-91
2022/08/13 05:05:36;;;;;;;16.90;13.38;;;;;;;20.09;100.00;100390.57;2906727;78;20998;-94
2022/08/13 05:09:38;;;;;;;14.30;12.95;;;;;;;20.13;100.00;100388.31;2932965;80;21384;-92
2022/08/13 05:13:42;;;;;;;14.47;13.08;;;;;;;20.19;100.00;100394.84;2876962;81;21057;-91
2022/08/13 05:17:44;;;;;;;15.87;12.80;;;;;;;20.31;100.00;100387.09;2912089;80;20988;-93
2022/08/13 05:21:45;;;;;;;15.90;13.45;;;;;;;20.35;100.00;100387.89;2916141;78;21522;-89
2022/08/13 05:25:47;;;;;;;14.30;12.75;;;;;;;20.43;100.00;100385.61;2852558;81;21078;-92
2022/08/13 05:29:48;;;;;;;15.75;12.13;;;;;;;20.47;100.00;100380.67;2906512;80;21058;-93
2022/08/13 05:33:50;;;;;;;14.78;12.47;;;;;;;20.52;100.00;100383.64;2909549;81;20992;-91
2022/08/13 05:37:51;;;;;;;16.37;12.88;;;;;;;20.52;100.00;100375.00;2910153;81;21065;-89
2022/08/13 05:41:52;;;;;;;18.52;14.58;;;;;;;20.61;100.00;100385.72;2902262;80;21004;-91
2022/08/13 05:45:57;;;;;;;17.15;13.98;;;;;;;20.67;100.00;100385.80;2878160;81;21074;-89
2022/08/13 05:49:59;;;;;;;16.20;14.13;;;;;;;20.78;100.00;100382.27;2885261;80;21050;-91
2022/08/13 05:54:01;;;;;;;17.92;13.30;;;;;;;20.83;100.00;100382.55;2878679;80;21038;-92
2022/08/13 05:58:05;;;;;;;14.95;13.45;;;;;;;20.91;100.00;100387.00;2908092;81;21071;-92
2022/08/13 06:06:29;;;;;;;16.23;14.20;;;;;;;21.10;100.00;100376.91;2907111;81;21038;-91
2022/08/13 06:10:31;;;;;;;16.15;13.88;;;;;;;21.24;100.00;100381.95;2898781;81;20963;-90
2022/08/13 06:14:33;;;;;;;17.07;14.85;;;;;;;21.32;100.00;100376.07;2913525;80;21066;-92
2022/08/13 06:18:38;;;;;;;15.38;13.50;;;;;;;21.35;100.00;100371.11;2876426;81;21082;-90
2022/08/13 06:22:44;;;;;;;13.80;12.05;;;;;;;21.37;100.00;100373.61;2912179;80;21074;-93
2022/08/13 06:26:45;;;;;;;16.05;13.03;;;;;;;21.42;100.00;100371.67;2920010;79;21029;-94
2022/08/13 06:30:49;;;;;;;14.40;12.20;;;;;;;21.43;100.00;100368.79;2958047;79;21076;-92
2022/08/13 06:34:51;;;;;;;14.90;13.32;;;;;;;21.47;100.00;100374.12;2895765;81;21653;-89
2022/08/13 06:38:57;;;;;;;17.65;13.38;;;;;;;21.46;100.00;100371.09;2902819;81;21137;-91
2022/08/13 06:43:00;;;;;;;15.83;13.80;;;;;;;21.47;100.00;100374.12;2914703;81;21046;-92
2022/08/13 06:47:04;;;;;;;14.87;13.38;;;;;;;21.50;100.00;100370.17;2905569;81;21301;-91
2022/08/13 06:51:09;;;;;;;15.55;12.85;;;;;;;21.47;100.00;100367.86;2878081;81;21073;-92
2022/08/13 06:55:11;;;;;;;15.80;12.98;;;;;;;21.47;100.00;100371.42;2961781;79;21506;-90
2022/08/13 06:59:13;;;;;;;14.83;12.88;;;;;;;21.47;100.00;100370.06;2972484;78;21018;-90
2022/08/13 07:03:17;;;;;;;18.92;13.28;;;;;;;21.50;100.00;100373.73;2884354;81;21084;-91
2022/08/13 07:07:18;;;;;;;14.47;12.95;;;;;;;21.54;100.00;100376.36;2910699;81;21592;-91
2022/08/13 07:11:22;;;;;;;14.65;13.20;;;;;;;21.56;100.00;100378.88;2895199;81;21094;-90
2022/08/13 07:15:24;;;;;;;17.10;13.60;;;;;;;21.58;100.00;100379.52;2923878;80;21010;-90
2022/08/13 07:19:25;;;;;;;16.30;13.03;;;;;;;21.66;100.00;100382.09;2957675;78;21540;-90
2022/08/13 07:23:27;;;;;;;16.95;14.87;;;;;;;21.64;100.00;100380.61;2946041;78;21045;-92
2022/08/13 07:27:30;;;;;;;16.87;15.18;;;;;;;21.62;100.00;100378.61;2917774;80;21046;-92
2022/08/13 07:31:39;;;;;;;24.60;20.85;;;;;;;21.57;100.00;100376.48;2911595;80;21018;-91
2022/08/13 07:35:38;;;;;;;33.35;29.60;;;;;;;21.57;100.00;100374.28;2920674;80;21719;-91
2022/08/13 07:39:40;;;;;;;17.77;15.88;;;;;;;21.58;100.00;100370.55;2915486;80;21078;-90
2022/08/13 07:43:43;;;;;;;16.77;15.08;;;;;;;21.66;100.00;100374.50;2921227;81;21011;-91
2022/08/13 07:47:52;;;;;;;19.75;15.75;;;;;;;21.68;100.00;100379.20;2922173;80;21029;-89
2022/08/13 07:51:51;;;;;;;15.38;13.15;;;;;;;21.66;100.00;100377.22;2923414;80;21307;-90
2022/08/13 07:55:54;;;;;;;14.87;13.30;;;;;;;21.67;100.00;100377.53;2884345;79;21089;-90
2022/08/13 07:59:56;;;;;;;15.45;13.80;;;;;;;21.67;100.00;100377.00;2917115;79;21058;-91
2022/08/13 08:04:01;;;;;;;15.38;13.43;;;;;;;21.72;100.00;100376.95;2922259;80;21051;-88
2022/08/13 08:08:04;;;;;;;14.25;12.75;;;;;;;21.72;100.00;100377.77;2902052;81;21030;-90
2022/08/13 08:16:32;;;;;;;19.73;15.00;;;;;;;21.83;100.00;100377.23;2928634;80;20975;-92
2022/08/13 08:20:34;;;;;;;18.07;16.17;;;;;;;21.92;100.00;100381.12;2916264;80;21035;-92
2022/08/13 08:24:36;;;;;;;18.75;14.55;;;;;;;21.99;100.00;100381.99;2890166;82;21077;-91
2022/08/13 08:28:38;;;;;;;18.75;16.90;;;;;;;22.08;100.00;100391.65;2875891;81;21540;-92
2022/08/13 08:32:42;;;;;;;17.23;15.28;;;;;;;22.24;100.00;100378.81;2900322;82;21023;-93
2022/08/13 08:36:46;;;;;;;14.85;13.38;;;;;;;22.36;100.00;100378.55;2875360;81;21181;-92
2022/08/13 08:45:13;;;;;;;14.73;12.58;;;;;;;22.56;100.00;100385.95;2870078;82;21059;-92
2022/08/13 08:49:13;;;;;;;14.30;12.60;;;;;;;22.64;100.00;100385.78;2899039;81;21055;-93
2022/08/13 08:53:23;;;;;;;26.85;15.45;;;;;;;22.72;100.00;100386.63;2890663;82;21051;-92
2022/08/13 08:57:25;;;;;;;14.95;13.40;;;;;;;22.78;100.00;100391.23;2857855;82;21042;-90
2022/08/13 09:01:29;;;;;;;14.73;12.55;;;;;;;22.86;100.00;100382.92;2880591;80;20996;-93
2022/08/13 09:05:31;;;;;;;14.83;13.35;;;;;;;22.93;100.00;100379.70;2879482;82;20992;-91
2022/08/13 09:09:34;;;;;;;14.93;13.43;;;;;;;23.02;100.00;100378.17;2889269;80;21026;-91
2022/08/13 09:13:36;;;;;;;14.20;12.75;;;;;;;23.00;100.00;100378.36;2885855;81;21018;-93
2022/08/13 09:17:42;;;;;;;15.75;14.15;;;;;;;23.01;100.00;100379.21;2865269;79;20994;-95
2022/08/13 09:21:46;;;;;;;15.05;13.40;;;;;;;23.04;100.00;100376.89;2876974;81;21106;-92
2022/08/13 09:25:48;;;;;;;15.63;14.10;;;;;;;23.06;100.00;100378.88;2907534;81;21018;-93
2022/08/13 09:29:51;;;;;;;15.00;12.98;;;;;;;23.06;100.00;100373.99;2902126;80;21006;-92
2022/08/13 09:33:53;;;;;;;15.75;14.03;;;;;;;23.02;100.00;100374.92;2920209;80;21281;-92
2022/08/13 09:37:57;;;;;;;18.62;16.77;;;;;;;23.04;100.00;100376.89;2876108;81;21393;-89
2022/08/13 09:42:02;;;;;;;16.05;14.33;;;;;;;23.07;100.00;100384.62;2929008;80;21065;-87
2022/08/13 09:46:04;;;;;;;17.30;15.43;;;;;;;23.07;100.00;100379.73;2912302;81;20999;-91
2022/08/13 09:50:08;;;;;;;17.80;14.13;;;;;;;22.96;100.00;100383.89;2878665;81;21045;-91
2022/08/13 09:54:10;;;;;;;16.25;12.25;;;;;;;22.88;100.00;100378.12;2917583;81;21080;-91
2022/08/13 09:58:11;;;;;;;16.40;14.28;;;;;;;22.81;100.00;100375.40;2882610;82;21506;-91
2022/08/13 10:02:14;;;;;;;16.80;15.08;;;;;;;22.76;100.00;100371.11;2915580;80;21097;-88
2022/08/13 10:06:19;;;;;;;16.57;14.65;;;;;;;22.79;100.00;100365.78;2936264;80;21534;-92
2022/08/13 10:10:23;;;;;;;18.00;16.30;;;;;;;22.90;100.00;100365.73;2921173;81;20979;-90
2022/08/13 10:14:24;;;;;;;18.52;14.55;;;;;;;23.00;100.00;100365.33;2921175;81;20995;-90
2022/08/13 10:18:27;;;;;;;16.95;14.13;;;;;;;23.03;100.00;100369.80;2919572;80;21050;-93
2022/08/13 10:22:28;;;;;;;16.42;14.80;;;;;;;23.05;100.00;100365.00;2932600;80;21003;-91
2022/08/13 10:26:31;;;;;;;16.30;14.65;;;;;;;23.03;100.00;100363.56;2930777;80;21077;-92
2022/08/13 10:30:32;;;;;;;18.37;15.60;;;;;;;23.03;100.00;100360.84;2939629;80;21025;-90
2022/08/13 10:34:34;;;;;;;17.42;14.65;;;;;;;23.07;100.00;100354.78;2889561;77;21060;-90
2022/08/13 10:38:35;;;;;;;17.20;15.45;;;;;;;23.14;100.00;100350.72;2896265;80;21014;-92
2022/08/13 10:42:37;;;;;;;17.17;14.95;;;;;;;23.30;100.00;100353.59;2901472;80;21050;-91
2022/08/13 10:46:39;;;;;;;14.73;13.32;;;;;;;23.38;100.00;100353.38;2925007;80;21033;-90
2022/08/13 10:50:41;;;;;;;17.98;14.80;;;;;;;23.39;100.00;100350.16;2922438;81;21010;-92
2022/08/13 10:54:44;;;;;;;15.13;13.53;;;;;;;23.36;100.00;100356.83;2893190;81;21089;-89
2022/08/13 10:58:45;;;;;;;15.53;12.68;;;;;;;23.33;100.00;100352.33;2934525;78;21667;-89
2022/08/13 11:02:50;;;;;;;16.10;14.55;;;;;;;23.30;100.00;100352.75;2912831;80;21097;-90
2022/08/13 11:06:52;;;;;;;15.15;13.68;;;;;;;23.31;100.00;100358.48;2932350;80;21027;-90
2022/08/13 11:10:53;;;;;;;22.00;13.43;;;;;;;23.37;100.00;100353.57;2932049;80;21006;-91
2022/08/13 11:14:55;;;;;;;14.93;13.32;;;;;;;23.44;100.00;100357.14;2932342;80;20995;-91
2022/08/13 11:18:57;;;;;;;15.95;12.35;;;;;;;23.63;100.00;100351.36;2945054;80;21085;-92
2022/08/13 11:22:58;;;;;;;12.07;10.88;;;;;;;23.62;100.00;100350.23;2932375;80;20987;-90
2022/08/13 11:27:00;;;;;;;14.20;12.65;;;;;;;23.58;100.00;100352.53;2968446;80;21628;-90
2022/08/13 11:31:01;;;;;;;12.20;11.05;;;;;;;23.57;100.00;100343.22;2927486;80;21078;-91
2022/08/13 11:35:05;;;;;;;14.35;12.07;;;;;;;23.57;100.00;100335.08;2884338;80;21042;-92
2022/08/13 11:39:07;;;;;;;13.58;11.70;;;;;;;23.66;100.00;100332.47;2947208;80;21030;-93
2022/08/13 11:43:08;;;;;;;15.08;12.78;;;;;;;23.90;100.00;100332.83;2946005;80;21019;-95
2022/08/13 11:47:10;;;;;;;14.35;12.85;;;;;;;24.21;100.00;100320.44;2941840;80;21008;-93
2022/08/13 11:51:12;;;;;;;14.43;12.93;;;;;;;24.51;100.00;100328.02;2926945;80;21305;-92
2022/08/13 11:55:13;;;;;;;14.63;13.18;;;;;;;24.80;100.00;100320.36;2953389;80;21556;-92
2022/08/13 11:59:15;;;;;;;13.83;12.50;;;;;;;25.01;100.00;100316.42;2966711;80;20992;-92
2022/08/13 12:03:16;;;;;;;14.35;12.95;;;;;;;25.01;100.00;100317.78;2966981;80;21025;-92
2022/08/13 12:07:18;;;;;;;15.75;13.98;;;;;;;24.91;100.00;100313.38;2973630;79;21046;-92
2022/08/13 12:11:20;;;;;;;15.30;13.93;;;;;;;24.90;100.00;100317.97;2973508;80;21069;-94
2022/08/13 12:15:21;;;;;;;16.10;13.13;;;;;;;24.83;100.00;100317.70;2933403;80;21054;-94
2022/08/13 12:19:23;;;;;;;16.77;15.08;;;;;;;24.81;100.00;100311.14;2962878;80;21102;-93
2022/08/13 12:23:26;;;;;;;17.40;15.70;;;;;;;24.94;100.00;100297.42;2958492;80;21058;-90
2022/08/13 12:31:38;;;;;;;16.82;15.15;;;;;;;25.37;100.00;100286.83;2844663;80;21608;-96
2022/08/13 12:35:40;;;;;;;17.95;16.17;;;;;;;25.52;100.00;100281.86;2853020;81;21094;-95
2022/08/13 12:52:21;;;;;;;13.35;12.10;;;;;;;26.03;93.41;100268.09;2750768;80;21681;-92
2022/08/13 12:56:23;;;;;;;14.98;13.30;;;;;;;26.07;91.13;100262.48;2760881;86;21099;-93
2022/08/13 13:00:28;;;;;;;12.75;11.65;;;;;;;26.08;92.96;100261.96;2767243;84;21043;-95
2022/08/13 13:30:58;;;;;;;12.80;10.68;;;;;;;26.77;83.70;100263.52;2831152;83;21074;-91
2022/08/13 13:35:01;;;;;;;12.93;11.60;;;;;;;26.86;82.88;100262.13;2888405;81;21501;-90
2022/08/13 13:39:03;;;;;;;11.20;10.00;;;;;;;26.98;82.21;100250.41;2851852;82;21090;-87
2022/08/13 13:43:05;;;;;;;25.55;21.68;;;;;;;26.99;82.25;100249.34;2893573;80;21030;-94
2022/08/13 13:47:07;;;;;;;16.23;14.50;;;;;;;26.84;84.49;100257.42;2866441;82;21019;-90
2022/08/13 13:51:13;;;;;;;17.17;15.40;;;;;;;26.71;83.40;100263.08;2865637;82;21015;-87
2022/08/13 13:55:15;;;;;;;15.95;13.72;;;;;;;26.64;84.70;100255.84;2865462;82;21506;-92
2022/08/13 13:59:17;;;;;;;13.98;11.53;;;;;;;26.45;83.95;100263.79;2864293;81;21636;-88
2022/08/13 14:03:19;;;;;;;11.48;10.50;;;;;;;26.32;85.07;100266.18;2865780;82;20983;-88
2022/08/13 14:07:21;;;;;;;10.82;9.75;;;;;;;26.23;83.53;100252.03;2829510;82;21079;-89
2022/08/13 14:11:23;;;;;;;10.63;9.63;;;;;;;26.26;85.46;100252.12;2864054;82;21030;-89
2022/08/13 14:15:25;;;;;;;15.38;11.10;;;;;;;26.33;84.47;100249.56;2865563;81;21376;-90
2022/08/13 14:19:28;;;;;;;11.22;10.03;;;;;;;26.41;83.29;100243.51;2866814;81;21026;-88
2022/08/13 14:23:30;;;;;;;11.60;9.18;;;;;;;26.64;81.76;100239.47;2856120;79;72105;-58
2022/08/13 14:27:33;;;;;;;13.70;11.90;;;;;;;26.76;79.97;100233.22;2851402;82;21066;-57
2022/08/13 14:31:39;;;;;;;12.47;10.58;;;;;;;26.82;80.05;100229.54;2851678;80;21396;-58
2022/08/13 14:35:42;;;;;;;11.20;10.00;;;;;;;26.81;81.02;100221.88;2881408;82;21047;-59
2022/08/13 14:39:43;;;;;;;11.20;10.20;;;;;;;26.78;79.46;100218.80;2881156;82;21030;-58
2022/08/13 14:43:48;;;;;;;11.80;10.68;;;;;;;26.85;79.44;100217.33;2871172;81;20995;-58
2022/08/13 14:48:00;;;;;;;10.53;9.55;;;;;;;26.80;77.74;100216.67;2902652;81;20999;-57
2022/08/13 14:52:02;;;;;;;13.30;11.18;;;;;;;26.80;79.74;100218.03;2895416;80;21046;-58
2022/08/13 14:56:05;;;;;;;11.38;10.18;;;;;;;26.84;78.43;100214.31;2845212;82;21055;-62
2022/08/13 15:00:10;;;;;;;13.22;11.68;;;;;;;26.79;77.08;100213.64;2880725;81;20975;-59
2022/08/13 15:04:12;;;;;;;;;;;;;;;26.82;79.79;100203.62;2884518;82;21522;-62
2022/08/13 15:08:17;;;;;;;11.10;10.05;;;;;;;26.89;79.43;100200.81;2908522;81;20098;-59
2022/08/13 15:12:22;;;;;;;12.58;10.10;;;;;;;26.91;78.33;100191.85;2898269;81;21030;-60
2022/08/13 15:16:26;;;;;;;12.93;11.33;;;;;;;26.98;79.86;100193.10;2882020;82;21105;-59
2022/08/13 15:20:31;;;;;;;13.60;12.10;;;;;;;27.11;78.46;100183.83;2837340;82;21110;-59
2022/08/13 15:24:37;;;;;;;11.85;10.70;;;;;;;27.27;79.26;100172.19;2850005;83;21502;-58
2022/08/13 15:28:41;;;;;;;15.63;11.63;;;;;;;27.35;77.18;100162.80;2881357;82;21106;-61
2022/08/13 15:32:56;;;;;;;11.93;10.72;;;;;;;27.36;77.03;100161.73;2908148;80;21031;-60
2022/08/13 15:36:58;;;;;;;13.38;12.00;;;;;;;27.34;76.15;100155.13;2853476;82;21002;-57
2022/08/13 15:41:09;;;;;;;13.13;11.78;;;;;;;27.37;75.95;100164.75;2847555;82;21054;-58
2022/08/13 15:45:16;;;;;;;13.25;11.95;;;;;;;27.49;77.63;100167.45;2839864;82;21078;-59
2022/08/13 15:49:20;;;;;;;14.45;12.30;;;;;;;27.56;76.07;100171.45;2853941;81;21011;-58
2022/08/13 15:53:25;;;;;;;14.80;13.10;;;;;;;27.60;75.13;100162.50;2896344;81;21077;-59
2022/08/13 15:57:26;;;;;;;;;;;;;;;27.59;76.77;100177.23;2885513;81;20997;-61
2022/08/13 16:01:53;;;;;;;15.65;13.98;;;;;;;27.23;87.53;100199.69;2879465;82;20081;-62
2022/08/13 16:05:55;;;;;;;18.60;14.93;;;;;;;26.58;90.79;100198.14;2879233;82;20971;-64
2022/08/13 16:09:57;;;;;;;18.65;14.95;;;;;;;26.01;95.09;100172.12;2875184;81;21036;-65
2022/08/13 16:14:00;;;;;;;19.45;15.88;;;;;;;25.71;99.70;100183.00;2864140;82;21034;-62
2022/08/13 16:18:06;;;;;;;20.92;16.57;;;;;;;25.34;100.00;100182.44;2876812;81;21022;-62
2022/08/13 16:22:11;;;;;;;26.82;16.57;;;;;;;25.07;100.00;100181.38;2890323;81;21022;-63
2022/08/13 16:26:12;;;;;;;21.68;16.27;;;;;;;24.92;100.00;100177.66;2818081;82;20983;-62
2022/08/13 16:30:14;;;;;;;19.48;15.23;;;;;;;24.81;100.00;100171.06;2906392;81;21086;-64
2022/08/13 16:34:19;;;;;;;18.27;14.98;;;;;;;24.81;100.00;100173.78;2904450;81;21030;-64
2022/08/13 16:38:21;;;;;;;17.52;15.68;;;;;;;24.83;100.00;100166.74;2889812;81;21058;-64
2022/08/13 16:42:24;;;;;;;20.57;17.82;;;;;;;24.78;100.00;100160.09;2845695;82;21046;-64
2022/08/13 16:46:30;;;;;;;18.98;15.75;;;;;;;24.79;100.00;100156.86;2901493;81;21010;-62
2022/08/13 16:50:31;;;;;;;;;;;;;;;24.80;100.00;100147.09;2883730;82;21026;-62
2022/08/13 16:54:34;;;;;;;22.25;16.80;;;;;;;24.84;100.00;100152.94;2866213;82;20144;-61
2022/08/13 16:58:35;;;;;;;22.50;16.85;;;;;;;24.79;100.00;100154.14;2879289;82;21074;-62
2022/08/13 17:11:19;;;;;;;19.62;17.55;;;;;;;24.85;100.00;100157.31;2833339;84;21026;-66
2022/08/13 17:15:20;;;;;;;25.57;18.45;;;;;;;24.82;100.00;100153.69;2847080;81;21066;-63
2022/08/13 17:19:22;;;;;;;27.17;17.65;;;;;;;24.75;100.00;100144.70;2882902;81;21028;-61
2022/08/13 17:23:28;;;;;;;21.00;17.27;;;;;;;24.68;100.00;100147.52;2878201;82;20979;-62
2022/08/13 17:27:30;;;;;;;20.82;17.87;;;;;;;24.71;100.00;100144.34;2886910;81;21898;-61
2022/08/13 17:31:35;;;;;;;19.87;16.77;;;;;;;24.75;100.00;100140.62;2883900;81;21030;-63
2022/08/13 17:35:36;;;;;;;18.97;17.00;;;;;;;24.83;100.00;100144.98;2902488;81;21042;-64
2022/08/13 17:39:41;;;;;;;21.60;18.37;;;;;;;24.88;100.00;100144.63;2821536;82;21049;-62
2022/08/13 17:43:42;;;;;;;21.65;19.35;;;;;;;24.89;100.00;100146.83;2870148;82;21521;-65
2022/08/13 17:47:43;;;;;;;19.90;17.75;;;;;;;24.78;100.00;100138.33;2873765;81;21028;-63
2022/08/13 17:51:50;;;;;;;18.70;16.77;;;;;;;24.73;100.00;100140.88;2886958;81;20996;-62
2022/08/13 17:55:54;;;;;;;22.70;19.92;;;;;;;24.52;100.00;100144.80;2841606;78;21039;-61
2022/08/13 17:59:56;;;;;;;22.07;19.37;;;;;;;24.46;100.00;100149.23;2892921;81;21010;-64
2022/08/13 18:04:01;;;;;;;20.32;17.07;;;;;;;24.26;100.00;100145.33;2832168;82;21044;-61
2022/08/13 18:08:04;;;;;;;23.22;18.20;;;;;;;24.20;100.00;100150.30;2873327;81;21024;-61
2022/08/13 18:12:06;;;;;;;25.48;19.40;;;;;;;24.20;100.00;100147.03;2831928;81;21038;-61
2022/08/13 18:16:09;;;;;;;19.55;17.40;;;;;;;24.10;100.00;100157.56;2828709;81;21023;-61
2022/08/13 18:20:15;;;;;;;19.32;17.15;;;;;;;24.11;100.00;100160.59;2881975;81;21001;-62
2022/08/13 18:24:16;;;;;;;19.95;17.85;;;;;;;24.13;100.00;100157.64;2844141;82;21003;-61
2022/08/13 18:28:19;;;;;;;23.80;20.37;;;;;;;23.95;100.00;100163.25;2874540;82;21046;-65
2022/08/13 18:32:21;;;;;;;22.37;20.08;;;;;;;23.87;100.00;100163.52;2878541;81;21031;-63
2022/08/13 18:36:22;;;;;;;21.27;18.27;;;;;;;23.76;100.00;100165.03;2880572;82;21078;-65
2022/08/13 18:40:25;;;;;;;21.87;19.35;;;;;;;23.71;100.00;100164.85;2877737;82;21096;-64
2022/08/13 18:57:36;;;;;;;23.80;18.85;;;;;;;23.51;100.00;100178.80;2789426;85;21071;-67
2022/08/13 19:01:37;;;;;;;26.55;20.77;;;;;;;23.46;100.00;100181.33;2779750;84;20989;-66
2022/08/13 19:06:04;;;;;;;23.90;18.45;;;;;;;23.48;100.00;100181.95;2849675;83;20980;-66
2022/08/13 19:10:17;;;;;;;21.75;19.37;;;;;;;23.41;100.00;100181.15;2828863;84;21018;-66
2022/08/13 19:14:21;;;;;;;20.45;17.73;;;;;;;23.35;100.00;100177.40;2826088;83;21474;-67
2022/08/13 19:18:24;;;;;;;31.70;23.93;;;;;;;23.30;100.00;100188.58;2847314;83;21037;-66
2022/08/13 19:22:25;;;;;;;25.05;19.98;;;;;;;23.30;100.00;100187.22;2795568;85;21012;-65
2022/08/13 19:26:27;;;;;;;25.43;22.65;;;;;;;23.28;100.00;100190.13;2779461;85;21028;-66
2022/08/13 19:30:31;;;;;;;22.93;20.43;;;;;;;23.28;100.00;100187.42;2731909;85;21003;-67
2022/08/13 19:35:12;;;;;;;24.05;21.27;;;;;;;23.39;100.00;100193.56;2777229;85;21047;-66
2022/08/13 19:39:14;;;;;;;24.23;21.60;;;;;;;23.51;100.00;100192.38;2771818;85;21035;-66
2022/08/13 19:43:15;;;;;;;22.42;19.92;;;;;;;23.60;100.00;100198.94;2766230;85;20975;-67
2022/08/13 19:47:19;;;;;;;23.25;20.40;;;;;;;23.65;100.00;100200.48;2742932;87;20984;-65
2022/08/13 19:51:22;;;;;;;23.83;20.10;;;;;;;23.62;100.00;100201.73;2756536;85;21010;-66
2022/08/13 19:55:50;;;;;;;29.23;20.32;;;;;;;23.60;100.00;100203.02;2754257;82;20992;-66